sensor_id;sensor_type;location;lat;lon;timestamp;P1;durP1;ratioP1;P2;durP2;ratioP2
13463;SDS011;6804;48.774;9.174;2023-02-28T00:01:42;3.00;;;1.80;;
13463;SDS011;6804;48.774;9.174;2023-02-28T00:04:09;3.40;;;1.70;;
13463;SDS011;6804;48.774;9.174;2023-02-28T00:06:36;2.10;;;1.80;;
13463;SDS011;6804;48.774;9.174;2023-02-28T00:09:04;3.00;;;2.10;;
13463;SDS011;6804;48.774;9.174;2023-02-28T00:11:35;3.57;;;2.00;;
13463;SDS011;6804;48.774;9.174;2023-02-28T00:14:03;1.87;;;1.73;;
13463;SDS011;6804;48.774;9.174;2023-02-28T00:16:32;3.23;;;1.90;;
13463;SDS011;6804;48.774;9.174;2023-02-28T00:19:00;3.30;;;1.80;;
13463;SDS011;6804;48.774;9.174;2023-02-28T00:21:27;3.77;;;2.10;;
13463;SDS011;6804;48.774;9.174;2023-02-28T00:23:54;2.47;;;1.87;;
13463;SDS011;6804;48.774;9.174;2023-02-28T00:26:24;3.57;;;1.77;;
13463;SDS011;6804;48.774;9.174;2023-02-28T00:28:53;3.23;;;1.90;;
13463;SDS011;6804;48.774;9.174;2023-02-28T00:31:23;3.30;;;1.97;;
13463;SDS011;6804;48.774;9.174;2023-02-28T00:33:51;3.07;;;1.83;;
13463;SDS011;6804;48.774;9.174;2023-02-28T00:36:18;2.77;;;1.93;;
13463;SDS011;6804;48.774;9.174;2023-02-28T00:38:45;3.60;;;1.73;;
13463;SDS011;6804;48.774;9.174;2023-02-28T00:41:21;2.70;;;1.80;;
13463;SDS011;6804;48.774;9.174;2023-02-28T00:43:49;2.40;;;1.80;;
13463;SDS011;6804;48.774;9.174;2023-02-28T00:46:17;2.20;;;2.00;;
13463;SDS011;6804;48.774;9.174;2023-02-28T00:48:45;2.50;;;2.03;;
13463;SDS011;6804;48.774;9.174;2023-02-28T00:51:14;2.27;;;2.07;;
13463;SDS011;6804;48.774;9.174;2023-02-28T00:53:41;2.73;;;1.60;;
13463;SDS011;6804;48.774;9.174;2023-02-28T00:56:08;2.43;;;1.90;;
13463;SDS011;6804;48.774;9.174;2023-02-28T00:58:35;2.57;;;1.73;;
13463;SDS011;6804;48.774;9.174;2023-02-28T01:01:03;2.63;;;2.00;;
13463;SDS011;6804;48.774;9.174;2023-02-28T01:03:32;2.60;;;1.87;;
13463;SDS011;6804;48.774;9.174;2023-02-28T01:05:59;3.47;;;2.37;;
13463;SDS011;6804;48.774;9.174;2023-02-28T01:08:26;2.23;;;1.83;;
13463;SDS011;6804;48.774;9.174;2023-02-28T01:10:54;2.43;;;1.80;;
13463;SDS011;6804;48.774;9.174;2023-02-28T01:13:21;2.23;;;1.70;;
13463;SDS011;6804;48.774;9.174;2023-02-28T01:15:50;2.27;;;1.90;;
13463;SDS011;6804;48.774;9.174;2023-02-28T01:18:20;5.20;;;2.27;;
13463;SDS011;6804;48.774;9.174;2023-02-28T01:20:48;3.37;;;2.10;;
13463;SDS011;6804;48.774;9.174;2023-02-28T01:23:17;3.60;;;2.23;;
13463;SDS011;6804;48.774;9.174;2023-02-28T01:25:45;2.47;;;2.00;;
13463;SDS011;6804;48.774;9.174;2023-02-28T01:28:12;3.63;;;2.00;;
13463;SDS011;6804;48.774;9.174;2023-02-28T01:30:46;2.93;;;2.10;;
13463;SDS011;6804;48.774;9.174;2023-02-28T01:33:15;3.27;;;1.97;;
13463;SDS011;6804;48.774;9.174;2023-02-28T01:35:45;4.40;;;2.30;;
13463;SDS011;6804;48.774;9.174;2023-02-28T01:38:14;2.67;;;2.13;;
13463;SDS011;6804;48.774;9.174;2023-02-28T01:40:45;3.33;;;2.03;;
13463;SDS011;6804;48.774;9.174;2023-02-28T01:43:16;3.07;;;2.50;;
13463;SDS011;6804;48.774;9.174;2023-02-28T01:45:49;2.30;;;2.10;;
13463;SDS011;6804;48.774;9.174;2023-02-28T01:48:16;2.43;;;2.23;;
13463;SDS011;6804;48.774;9.174;2023-02-28T01:50:45;3.10;;;2.40;;
13463;SDS011;6804;48.774;9.174;2023-02-28T01:53:19;2.80;;;2.20;;
13463;SDS011;6804;48.774;9.174;2023-02-28T01:55:55;2.67;;;2.10;;
13463;SDS011;6804;48.774;9.174;2023-02-28T01:58:26;6.00;;;2.30;;
13463;SDS011;6804;48.774;9.174;2023-02-28T02:00:54;2.50;;;2.30;;
13463;SDS011;6804;48.774;9.174;2023-02-28T02:03:22;2.60;;;2.10;;
13463;SDS011;6804;48.774;9.174;2023-02-28T02:05:50;3.37;;;2.20;;
13463;SDS011;6804;48.774;9.174;2023-02-28T02:08:20;2.40;;;2.20;;
13463;SDS011;6804;48.774;9.174;2023-02-28T02:10:50;4.67;;;2.33;;
13463;SDS011;6804;48.774;9.174;2023-02-28T02:13:24;3.10;;;2.27;;
13463;SDS011;6804;48.774;9.174;2023-02-28T02:16:23;3.30;;;2.10;;
13463;SDS011;6804;48.774;9.174;2023-02-28T02:19:02;3.10;;;2.40;;
13463;SDS011;6804;48.774;9.174;2023-02-28T02:22:02;3.07;;;2.37;;
13463;SDS011;6804;48.774;9.174;2023-02-28T02:25:07;4.67;;;2.70;;
13463;SDS011;6804;48.774;9.174;2023-02-28T02:30:53;4.07;;;2.30;;
13463;SDS011;6804;48.774;9.174;2023-02-28T02:33:39;2.77;;;2.27;;
13463;SDS011;6804;48.774;9.174;2023-02-28T02:36:37;3.20;;;2.17;;
13463;SDS011;6804;48.774;9.174;2023-02-28T02:39:13;3.50;;;2.67;;
13463;SDS011;6804;48.774;9.174;2023-02-28T02:41:46;3.93;;;2.63;;
13463;SDS011;6804;48.774;9.174;2023-02-28T02:44:20;4.07;;;2.60;;
13463;SDS011;6804;48.774;9.174;2023-02-28T02:46:50;4.73;;;2.83;;
13463;SDS011;6804;48.774;9.174;2023-02-28T02:49:24;3.93;;;2.50;;
13463;SDS011;6804;48.774;9.174;2023-02-28T02:51:58;2.73;;;2.30;;
13463;SDS011;6804;48.774;9.174;2023-02-28T02:54:31;3.17;;;2.40;;
13463;SDS011;6804;48.774;9.174;2023-02-28T02:57:03;4.57;;;2.80;;
13463;SDS011;6804;48.774;9.174;2023-02-28T02:59:34;3.13;;;2.60;;
13463;SDS011;6804;48.774;9.174;2023-02-28T03:02:04;3.07;;;2.77;;
13463;SDS011;6804;48.774;9.174;2023-02-28T03:04:37;3.50;;;2.70;;
13463;SDS011;6804;48.774;9.174;2023-02-28T03:07:13;3.27;;;2.70;;
13463;SDS011;6804;48.774;9.174;2023-02-28T03:09:40;3.43;;;2.53;;
13463;SDS011;6804;48.774;9.174;2023-02-28T03:12:16;4.27;;;2.73;;
13463;SDS011;6804;48.774;9.174;2023-02-28T03:14:56;4.83;;;2.80;;
13463;SDS011;6804;48.774;9.174;2023-02-28T03:17:35;2.67;;;2.47;;
13463;SDS011;6804;48.774;9.174;2023-02-28T03:20:17;2.80;;;2.37;;
13463;SDS011;6804;48.774;9.174;2023-02-28T03:23:02;3.90;;;2.70;;
13463;SDS011;6804;48.774;9.174;2023-02-28T03:25:38;4.43;;;3.00;;
13463;SDS011;6804;48.774;9.174;2023-02-28T03:28:19;4.30;;;2.80;;
13463;SDS011;6804;48.774;9.174;2023-02-28T03:30:54;3.27;;;2.93;;
13463;SDS011;6804;48.774;9.174;2023-02-28T03:33:28;3.90;;;2.50;;
13463;SDS011;6804;48.774;9.174;2023-02-28T03:36:04;3.83;;;3.13;;
13463;SDS011;6804;48.774;9.174;2023-02-28T03:38:38;4.07;;;2.90;;
13463;SDS011;6804;48.774;9.174;2023-02-28T03:41:12;3.77;;;3.10;;
13463;SDS011;6804;48.774;9.174;2023-02-28T03:43:41;4.87;;;2.90;;
13463;SDS011;6804;48.774;9.174;2023-02-28T03:46:13;3.73;;;3.07;;
13463;SDS011;6804;48.774;9.174;2023-02-28T03:48:47;3.83;;;2.80;;
13463;SDS011;6804;48.774;9.174;2023-02-28T03:51:23;3.10;;;2.70;;
13463;SDS011;6804;48.774;9.174;2023-02-28T03:53:52;4.77;;;3.37;;
13463;SDS011;6804;48.774;9.174;2023-02-28T03:56:24;5.03;;;3.00;;
13463;SDS011;6804;48.774;9.174;2023-02-28T03:58:59;4.20;;;2.97;;
13463;SDS011;6804;48.774;9.174;2023-02-28T04:01:33;3.50;;;3.20;;
13463;SDS011;6804;48.774;9.174;2023-02-28T04:04:06;3.20;;;2.90;;
13463;SDS011;6804;48.774;9.174;2023-02-28T04:06:35;3.10;;;2.50;;
13463;SDS011;6804;48.774;9.174;2023-02-28T04:09:02;4.30;;;3.00;;
13463;SDS011;6804;48.774;9.174;2023-02-28T04:11:32;4.97;;;2.73;;
13463;SDS011;6804;48.774;9.174;2023-02-28T04:14:01;4.27;;;3.60;;
13463;SDS011;6804;48.774;9.174;2023-02-28T04:16:29;3.53;;;3.00;;
13463;SDS011;6804;48.774;9.174;2023-02-28T04:18:57;4.30;;;3.40;;
13463;SDS011;6804;48.774;9.174;2023-02-28T04:21:27;3.77;;;2.90;;
13463;SDS011;6804;48.774;9.174;2023-02-28T04:23:56;3.37;;;2.80;;
13463;SDS011;6804;48.774;9.174;2023-02-28T04:26:25;4.00;;;3.37;;
13463;SDS011;6804;48.774;9.174;2023-02-28T04:28:54;3.10;;;2.67;;
13463;SDS011;6804;48.774;9.174;2023-02-28T04:31:24;3.67;;;3.10;;
13463;SDS011;6804;48.774;9.174;2023-02-28T04:33:55;3.50;;;2.87;;
13463;SDS011;6804;48.774;9.174;2023-02-28T04:36:22;3.60;;;3.07;;
13463;SDS011;6804;48.774;9.174;2023-02-28T04:38:49;3.93;;;3.37;;
13463;SDS011;6804;48.774;9.174;2023-02-28T04:41:21;3.70;;;3.13;;
13463;SDS011;6804;48.774;9.174;2023-02-28T04:43:48;3.97;;;3.30;;
13463;SDS011;6804;48.774;9.174;2023-02-28T04:46:21;5.07;;;3.60;;
13463;SDS011;6804;48.774;9.174;2023-02-28T04:48:49;4.50;;;3.40;;
13463;SDS011;6804;48.774;9.174;2023-02-28T04:51:17;3.37;;;2.80;;
13463;SDS011;6804;48.774;9.174;2023-02-28T04:53:45;4.70;;;3.13;;
13463;SDS011;6804;48.774;9.174;2023-02-28T04:56:13;4.50;;;3.37;;
13463;SDS011;6804;48.774;9.174;2023-02-28T04:58:43;3.80;;;3.20;;
13463;SDS011;6804;48.774;9.174;2023-02-28T05:01:18;4.07;;;3.13;;
13463;SDS011;6804;48.774;9.174;2023-02-28T05:03:50;4.63;;;3.53;;
13463;SDS011;6804;48.774;9.174;2023-02-28T05:06:18;4.10;;;2.63;;
13463;SDS011;6804;48.774;9.174;2023-02-28T05:08:46;5.43;;;3.23;;
13463;SDS011;6804;48.774;9.174;2023-02-28T05:11:15;4.53;;;3.30;;
13463;SDS011;6804;48.774;9.174;2023-02-28T05:13:45;4.07;;;3.00;;
13463;SDS011;6804;48.774;9.174;2023-02-28T05:16:15;3.57;;;3.27;;
13463;SDS011;6804;48.774;9.174;2023-02-28T05:18:44;3.90;;;3.43;;
13463;SDS011;6804;48.774;9.174;2023-02-28T05:21:22;4.70;;;3.50;;
13463;SDS011;6804;48.774;9.174;2023-02-28T05:23:51;4.63;;;3.50;;
13463;SDS011;6804;48.774;9.174;2023-02-28T05:26:21;6.40;;;3.07;;
13463;SDS011;6804;48.774;9.174;2023-02-28T05:28:53;4.13;;;3.40;;
13463;SDS011;6804;48.774;9.174;2023-02-28T05:31:21;4.27;;;3.40;;
13463;SDS011;6804;48.774;9.174;2023-02-28T05:33:49;4.70;;;3.50;;
13463;SDS011;6804;48.774;9.174;2023-02-28T05:36:19;5.03;;;3.30;;
13463;SDS011;6804;48.774;9.174;2023-02-28T05:38:47;5.70;;;3.57;;
13463;SDS011;6804;48.774;9.174;2023-02-28T05:41:14;5.43;;;3.40;;
13463;SDS011;6804;48.774;9.174;2023-02-28T05:43:41;5.20;;;3.30;;
13463;SDS011;6804;48.774;9.174;2023-02-28T05:46:11;4.73;;;3.53;;
13463;SDS011;6804;48.774;9.174;2023-02-28T05:48:42;4.97;;;3.50;;
13463;SDS011;6804;48.774;9.174;2023-02-28T05:51:11;5.07;;;3.90;;
13463;SDS011;6804;48.774;9.174;2023-02-28T05:53:39;4.50;;;3.50;;
13463;SDS011;6804;48.774;9.174;2023-02-28T05:56:06;5.70;;;3.53;;
13463;SDS011;6804;48.774;9.174;2023-02-28T05:58:33;4.43;;;3.47;;
13463;SDS011;6804;48.774;9.174;2023-02-28T06:03:47;4.50;;;3.70;;
13463;SDS011;6804;48.774;9.174;2023-02-28T06:06:17;5.30;;;4.13;;
13463;SDS011;6804;48.774;9.174;2023-02-28T06:08:46;4.30;;;3.53;;
13463;SDS011;6804;48.774;9.174;2023-02-28T06:11:14;5.03;;;3.63;;
13463;SDS011;6804;48.774;9.174;2023-02-28T06:13:41;5.07;;;3.50;;
13463;SDS011;6804;48.774;9.174;2023-02-28T06:16:11;6.07;;;4.30;;
13463;SDS011;6804;48.774;9.174;2023-02-28T06:18:40;4.90;;;3.87;;
13463;SDS011;6804;48.774;9.174;2023-02-28T06:21:07;5.17;;;4.07;;
13463;SDS011;6804;48.774;9.174;2023-02-28T06:23:37;4.73;;;3.97;;
13463;SDS011;6804;48.774;9.174;2023-02-28T06:26:04;4.47;;;3.83;;
13463;SDS011;6804;48.774;9.174;2023-02-28T06:28:32;5.80;;;4.00;;
13463;SDS011;6804;48.774;9.174;2023-02-28T06:31:06;4.73;;;3.80;;
13463;SDS011;6804;48.774;9.174;2023-02-28T06:33:38;5.20;;;4.23;;
13463;SDS011;6804;48.774;9.174;2023-02-28T06:36:08;6.77;;;4.10;;
13463;SDS011;6804;48.774;9.174;2023-02-28T06:38:39;4.93;;;3.90;;
13463;SDS011;6804;48.774;9.174;2023-02-28T06:41:07;5.40;;;3.97;;
13463;SDS011;6804;48.774;9.174;2023-02-28T06:43:35;6.33;;;4.37;;
13463;SDS011;6804;48.774;9.174;2023-02-28T06:46:08;4.50;;;4.10;;
13463;SDS011;6804;48.774;9.174;2023-02-28T06:48:40;5.83;;;4.10;;
13463;SDS011;6804;48.774;9.174;2023-02-28T06:51:09;6.17;;;4.07;;
13463;SDS011;6804;48.774;9.174;2023-02-28T06:53:39;6.00;;;4.20;;
13463;SDS011;6804;48.774;9.174;2023-02-28T06:56:07;5.37;;;4.00;;
13463;SDS011;6804;48.774;9.174;2023-02-28T06:58:36;6.03;;;4.40;;
13463;SDS011;6804;48.774;9.174;2023-02-28T07:01:04;4.37;;;3.97;;
13463;SDS011;6804;48.774;9.174;2023-02-28T07:03:32;4.70;;;4.17;;
13463;SDS011;6804;48.774;9.174;2023-02-28T07:06:02;7.03;;;4.70;;
13463;SDS011;6804;48.774;9.174;2023-02-28T07:08:32;4.93;;;4.10;;
13463;SDS011;6804;48.774;9.174;2023-02-28T07:11:02;5.27;;;4.60;;
13463;SDS011;6804;48.774;9.174;2023-02-28T07:13:30;7.20;;;4.50;;
13463;SDS011;6804;48.774;9.174;2023-02-28T07:15:58;9.83;;;4.53;;
13463;SDS011;6804;48.774;9.174;2023-02-28T07:18:26;5.87;;;4.27;;
13463;SDS011;6804;48.774;9.174;2023-02-28T07:20:54;6.57;;;4.60;;
13463;SDS011;6804;48.774;9.174;2023-02-28T07:23:23;6.40;;;5.17;;
13463;SDS011;6804;48.774;9.174;2023-02-28T07:25:51;6.57;;;4.40;;
13463;SDS011;6804;48.774;9.174;2023-02-28T07:28:18;6.53;;;5.03;;
13463;SDS011;6804;48.774;9.174;2023-02-28T07:30:45;9.27;;;4.27;;
13463;SDS011;6804;48.774;9.174;2023-02-28T07:33:13;7.43;;;4.67;;
13463;SDS011;6804;48.774;9.174;2023-02-28T07:35:41;6.37;;;4.10;;
13463;SDS011;6804;48.774;9.174;2023-02-28T07:38:09;5.77;;;4.63;;
13463;SDS011;6804;48.774;9.174;2023-02-28T07:40:40;6.13;;;5.20;;
13463;SDS011;6804;48.774;9.174;2023-02-28T07:43:10;6.83;;;4.57;;
13463;SDS011;6804;48.774;9.174;2023-02-28T07:45:37;6.03;;;4.53;;
13463;SDS011;6804;48.774;9.174;2023-02-28T07:48:08;6.23;;;4.57;;
13463;SDS011;6804;48.774;9.174;2023-02-28T07:50:35;6.40;;;4.90;;
13463;SDS011;6804;48.774;9.174;2023-02-28T07:53:13;8.03;;;5.30;;
13463;SDS011;6804;48.774;9.174;2023-02-28T07:55:51;7.67;;;4.77;;
13463;SDS011;6804;48.774;9.174;2023-02-28T07:58:24;9.10;;;5.80;;
13463;SDS011;6804;48.774;9.174;2023-02-28T08:01:05;6.23;;;4.80;;
13463;SDS011;6804;48.774;9.174;2023-02-28T08:03:33;7.60;;;5.13;;
13463;SDS011;6804;48.774;9.174;2023-02-28T08:06:02;6.70;;;5.57;;
13463;SDS011;6804;48.774;9.174;2023-02-28T08:08:30;6.73;;;5.83;;
13463;SDS011;6804;48.774;9.174;2023-02-28T08:10:59;5.80;;;5.03;;
13463;SDS011;6804;48.774;9.174;2023-02-28T08:13:29;7.53;;;5.80;;
13463;SDS011;6804;48.774;9.174;2023-02-28T08:15:57;8.87;;;6.77;;
13463;SDS011;6804;48.774;9.174;2023-02-28T08:18:27;6.83;;;5.33;;
13463;SDS011;6804;48.774;9.174;2023-02-28T08:20:55;8.13;;;6.57;;
13463;SDS011;6804;48.774;9.174;2023-02-28T08:23:22;7.80;;;5.60;;
13463;SDS011;6804;48.774;9.174;2023-02-28T08:25:52;8.70;;;6.33;;
13463;SDS011;6804;48.774;9.174;2023-02-28T08:28:22;7.70;;;5.80;;
13463;SDS011;6804;48.774;9.174;2023-02-28T08:30:52;6.50;;;5.80;;
13463;SDS011;6804;48.774;9.174;2023-02-28T08:33:23;6.57;;;5.60;;
13463;SDS011;6804;48.774;9.174;2023-02-28T08:35:52;9.47;;;6.27;;
13463;SDS011;6804;48.774;9.174;2023-02-28T08:38:23;9.00;;;6.80;;
13463;SDS011;6804;48.774;9.174;2023-02-28T08:40:59;7.73;;;5.80;;
13463;SDS011;6804;48.774;9.174;2023-02-28T08:43:31;7.97;;;5.90;;
13463;SDS011;6804;48.774;9.174;2023-02-28T08:45:59;8.50;;;5.90;;
13463;SDS011;6804;48.774;9.174;2023-02-28T08:48:28;7.97;;;6.30;;
13463;SDS011;6804;48.774;9.174;2023-02-28T08:50:58;9.63;;;5.37;;
13463;SDS011;6804;48.774;9.174;2023-02-28T08:53:30;6.67;;;5.60;;
13463;SDS011;6804;48.774;9.174;2023-02-28T08:55:58;8.73;;;6.20;;
13463;SDS011;6804;48.774;9.174;2023-02-28T08:58:34;6.23;;;5.33;;
13463;SDS011;6804;48.774;9.174;2023-02-28T09:01:06;7.77;;;6.83;;
13463;SDS011;6804;48.774;9.174;2023-02-28T09:03:35;8.17;;;5.97;;
13463;SDS011;6804;48.774;9.174;2023-02-28T09:06:03;8.80;;;7.17;;
13463;SDS011;6804;48.774;9.174;2023-02-28T09:08:31;8.70;;;6.50;;
13463;SDS011;6804;48.774;9.174;2023-02-28T09:10:58;8.93;;;6.00;;
13463;SDS011;6804;48.774;9.174;2023-02-28T09:13:34;8.70;;;6.70;;
13463;SDS011;6804;48.774;9.174;2023-02-28T09:16:04;7.17;;;5.67;;
13463;SDS011;6804;48.774;9.174;2023-02-28T09:18:37;8.27;;;5.53;;
13463;SDS011;6804;48.774;9.174;2023-02-28T09:21:06;7.97;;;6.33;;
13463;SDS011;6804;48.774;9.174;2023-02-28T09:23:39;8.20;;;6.13;;
13463;SDS011;6804;48.774;9.174;2023-02-28T09:26:07;9.20;;;6.60;;
13463;SDS011;6804;48.774;9.174;2023-02-28T09:28:44;7.23;;;5.33;;
13463;SDS011;6804;48.774;9.174;2023-02-28T09:31:12;7.53;;;5.60;;
13463;SDS011;6804;48.774;9.174;2023-02-28T09:33:43;8.07;;;6.20;;
13463;SDS011;6804;48.774;9.174;2023-02-28T09:36:13;8.87;;;6.07;;
13463;SDS011;6804;48.774;9.174;2023-02-28T09:38:43;8.40;;;6.13;;
13463;SDS011;6804;48.774;9.174;2023-02-28T09:41:13;8.03;;;6.83;;
13463;SDS011;6804;48.774;9.174;2023-02-28T09:43:45;8.13;;;6.73;;
13463;SDS011;6804;48.774;9.174;2023-02-28T09:46:24;8.50;;;6.30;;
13463;SDS011;6804;48.774;9.174;2023-02-28T09:48:59;6.20;;;5.20;;
13463;SDS011;6804;48.774;9.174;2023-02-28T09:51:33;9.47;;;6.70;;
13463;SDS011;6804;48.774;9.174;2023-02-28T09:54:09;10.57;;;6.57;;
13463;SDS011;6804;48.774;9.174;2023-02-28T09:56:44;8.13;;;5.37;;
13463;SDS011;6804;48.774;9.174;2023-02-28T09:59:21;9.33;;;6.53;;
13463;SDS011;6804;48.774;9.174;2023-02-28T10:02:02;8.20;;;6.13;;
13463;SDS011;6804;48.774;9.174;2023-02-28T10:04:46;8.20;;;6.73;;
13463;SDS011;6804;48.774;9.174;2023-02-28T10:07:35;8.13;;;6.50;;
13463;SDS011;6804;48.774;9.174;2023-02-28T10:10:18;8.87;;;6.53;;
13463;SDS011;6804;48.774;9.174;2023-02-28T10:12:51;9.37;;;6.73;;
13463;SDS011;6804;48.774;9.174;2023-02-28T10:15:25;8.53;;;6.57;;
13463;SDS011;6804;48.774;9.174;2023-02-28T10:17:58;8.30;;;6.37;;
13463;SDS011;6804;48.774;9.174;2023-02-28T10:20:29;8.00;;;7.20;;
13463;SDS011;6804;48.774;9.174;2023-02-28T10:23:08;7.93;;;7.00;;
13463;SDS011;6804;48.774;9.174;2023-02-28T10:25:43;8.40;;;6.37;;
13463;SDS011;6804;48.774;9.174;2023-02-28T10:28:15;8.13;;;7.00;;
13463;SDS011;6804;48.774;9.174;2023-02-28T10:30:46;10.20;;;6.93;;
13463;SDS011;6804;48.774;9.174;2023-02-28T10:33:23;8.47;;;6.30;;
13463;SDS011;6804;48.774;9.174;2023-02-28T10:35:54;8.93;;;7.40;;
13463;SDS011;6804;48.774;9.174;2023-02-28T10:38:22;9.27;;;6.67;;
13463;SDS011;6804;48.774;9.174;2023-02-28T10:41:05;8.53;;;6.47;;
13463;SDS011;6804;48.774;9.174;2023-02-28T10:43:36;12.17;;;6.83;;
13463;SDS011;6804;48.774;9.174;2023-02-28T10:46:10;10.03;;;6.70;;
13463;SDS011;6804;48.774;9.174;2023-02-28T10:48:58;8.37;;;6.70;;
13463;SDS011;6804;48.774;9.174;2023-02-28T10:51:34;8.27;;;7.47;;
13463;SDS011;6804;48.774;9.174;2023-02-28T10:54:04;9.00;;;7.40;;
13463;SDS011;6804;48.774;9.174;2023-02-28T10:56:31;7.27;;;6.50;;
13463;SDS011;6804;48.774;9.174;2023-02-28T10:59:00;9.23;;;8.23;;
13463;SDS011;6804;48.774;9.174;2023-02-28T11:01:36;11.27;;;7.37;;
13463;SDS011;6804;48.774;9.174;2023-02-28T11:04:16;7.80;;;6.37;;
13463;SDS011;6804;48.774;9.174;2023-02-28T11:06:44;9.80;;;6.70;;
13463;SDS011;6804;48.774;9.174;2023-02-28T11:09:16;8.83;;;7.70;;
13463;SDS011;6804;48.774;9.174;2023-02-28T11:11:49;7.83;;;6.70;;
13463;SDS011;6804;48.774;9.174;2023-02-28T11:14:18;8.87;;;7.20;;
13463;SDS011;6804;48.774;9.174;2023-02-28T11:16:50;8.47;;;7.50;;
13463;SDS011;6804;48.774;9.174;2023-02-28T11:19:23;9.13;;;7.20;;
13463;SDS011;6804;48.774;9.174;2023-02-28T11:21:54;8.07;;;6.63;;
13463;SDS011;6804;48.774;9.174;2023-02-28T11:24:27;8.17;;;6.90;;
13463;SDS011;6804;48.774;9.174;2023-02-28T11:27:04;8.73;;;7.33;;
13463;SDS011;6804;48.774;9.174;2023-02-28T11:29:35;9.43;;;7.67;;
13463;SDS011;6804;48.774;9.174;2023-02-28T11:32:18;9.03;;;7.20;;
13463;SDS011;6804;48.774;9.174;2023-02-28T11:34:47;14.70;;;10.87;;
13463;SDS011;6804;48.774;9.174;2023-02-28T11:37:28;9.87;;;7.00;;
13463;SDS011;6804;48.774;9.174;2023-02-28T11:39:57;8.57;;;7.53;;
13463;SDS011;6804;48.774;9.174;2023-02-28T11:42:33;8.97;;;7.73;;
13463;SDS011;6804;48.774;9.174;2023-02-28T11:45:17;8.20;;;6.80;;
13463;SDS011;6804;48.774;9.174;2023-02-28T11:47:55;8.70;;;6.60;;
13463;SDS011;6804;48.774;9.174;2023-02-28T11:50:37;10.30;;;7.20;;
13463;SDS011;6804;48.774;9.174;2023-02-28T11:53:16;8.33;;;7.53;;
13463;SDS011;6804;48.774;9.174;2023-02-28T11:55:52;7.23;;;6.33;;
13463;SDS011;6804;48.774;9.174;2023-02-28T11:58:28;8.70;;;7.63;;
13463;SDS011;6804;48.774;9.174;2023-02-28T12:01:12;12.27;;;6.57;;
13463;SDS011;6804;48.774;9.174;2023-02-28T12:03:57;8.20;;;7.40;;
13463;SDS011;6804;48.774;9.174;2023-02-28T12:06:40;8.27;;;7.30;;
13463;SDS011;6804;48.774;9.174;2023-02-28T12:09:32;10.10;;;7.20;;
13463;SDS011;6804;48.774;9.174;2023-02-28T12:12:18;8.43;;;7.20;;
13463;SDS011;6804;48.774;9.174;2023-02-28T12:18:10;8.47;;;7.57;;
13463;SDS011;6804;48.774;9.174;2023-02-28T12:21:04;7.80;;;6.40;;
13463;SDS011;6804;48.774;9.174;2023-02-28T12:23:43;8.67;;;7.10;;
13463;SDS011;6804;48.774;9.174;2023-02-28T12:26:37;8.70;;;6.80;;
13463;SDS011;6804;48.774;9.174;2023-02-28T12:29:10;7.27;;;6.57;;
13463;SDS011;6804;48.774;9.174;2023-02-28T12:31:45;9.10;;;7.13;;
13463;SDS011;6804;48.774;9.174;2023-02-28T12:34:19;8.23;;;6.77;;
13463;SDS011;6804;48.774;9.174;2023-02-28T12:36:49;10.63;;;6.67;;
13463;SDS011;6804;48.774;9.174;2023-02-28T12:39:29;8.97;;;7.57;;
13463;SDS011;6804;48.774;9.174;2023-02-28T12:42:10;7.07;;;6.30;;
13463;SDS011;6804;48.774;9.174;2023-02-28T12:44:46;8.10;;;6.90;;
13463;SDS011;6804;48.774;9.174;2023-02-28T12:47:18;8.40;;;6.60;;
13463;SDS011;6804;48.774;9.174;2023-02-28T12:49:49;7.53;;;6.67;;
13463;SDS011;6804;48.774;9.174;2023-02-28T12:52:25;7.93;;;7.13;;
13463;SDS011;6804;48.774;9.174;2023-02-28T12:55:05;8.63;;;7.37;;
13463;SDS011;6804;48.774;9.174;2023-02-28T12:57:51;8.87;;;7.20;;
13463;SDS011;6804;48.774;9.174;2023-02-28T13:00:29;7.27;;;6.57;;
13463;SDS011;6804;48.774;9.174;2023-02-28T13:06:13;8.00;;;6.97;;
13463;SDS011;6804;48.774;9.174;2023-02-28T13:08:59;8.97;;;7.33;;
13463;SDS011;6804;48.774;9.174;2023-02-28T13:11:40;8.20;;;7.30;;
13463;SDS011;6804;48.774;9.174;2023-02-28T13:14:20;7.57;;;6.23;;
13463;SDS011;6804;48.774;9.174;2023-02-28T13:17:02;7.20;;;6.50;;
13463;SDS011;6804;48.774;9.174;2023-02-28T13:19:37;7.57;;;6.40;;
13463;SDS011;6804;48.774;9.174;2023-02-28T13:22:35;9.30;;;6.80;;
13463;SDS011;6804;48.774;9.174;2023-02-28T13:31:27;8.43;;;7.50;;
13463;SDS011;6804;48.774;9.174;2023-02-28T13:34:15;8.60;;;6.80;;
13463;SDS011;6804;48.774;9.174;2023-02-28T13:36:45;9.57;;;7.07;;
13463;SDS011;6804;48.774;9.174;2023-02-28T13:45:21;7.57;;;6.50;;
13463;SDS011;6804;48.774;9.174;2023-02-28T13:47:58;7.67;;;6.87;;
13463;SDS011;6804;48.774;9.174;2023-02-28T13:50:29;6.93;;;6.23;;
13463;SDS011;6804;48.774;9.174;2023-02-28T13:53:14;8.20;;;6.27;;
13463;SDS011;6804;48.774;9.174;2023-02-28T13:56:00;7.80;;;6.27;;
13463;SDS011;6804;48.774;9.174;2023-02-28T13:58:43;7.13;;;6.43;;
13463;SDS011;6804;48.774;9.174;2023-02-28T14:01:26;14.93;;;8.90;;
13463;SDS011;6804;48.774;9.174;2023-02-28T14:07:16;8.97;;;6.27;;
13463;SDS011;6804;48.774;9.174;2023-02-28T14:09:52;7.77;;;6.67;;
13463;SDS011;6804;48.774;9.174;2023-02-28T14:15:47;8.83;;;6.63;;
13463;SDS011;6804;48.774;9.174;2023-02-28T14:18:25;9.03;;;6.53;;
13463;SDS011;6804;48.774;9.174;2023-02-28T14:21:08;8.00;;;7.07;;
13463;SDS011;6804;48.774;9.174;2023-02-28T14:23:46;7.87;;;6.87;;
13463;SDS011;6804;48.774;9.174;2023-02-28T14:26:31;7.97;;;6.57;;
13463;SDS011;6804;48.774;9.174;2023-02-28T14:29:26;7.60;;;6.20;;
13463;SDS011;6804;48.774;9.174;2023-02-28T14:32:13;7.67;;;6.17;;
13463;SDS011;6804;48.774;9.174;2023-02-28T14:34:49;8.13;;;6.37;;
13463;SDS011;6804;48.774;9.174;2023-02-28T14:37:23;7.50;;;6.50;;
13463;SDS011;6804;48.774;9.174;2023-02-28T14:40:03;8.73;;;6.60;;
13463;SDS011;6804;48.774;9.174;2023-02-28T14:42:38;9.43;;;6.43;;
13463;SDS011;6804;48.774;9.174;2023-02-28T14:45:17;7.00;;;5.90;;
13463;SDS011;6804;48.774;9.174;2023-02-28T14:47:52;7.03;;;6.33;;
13463;SDS011;6804;48.774;9.174;2023-02-28T14:50:20;7.97;;;7.27;;
13463;SDS011;6804;48.774;9.174;2023-02-28T14:52:53;6.90;;;6.20;;
13463;SDS011;6804;48.774;9.174;2023-02-28T14:55:23;8.00;;;6.33;;
13463;SDS011;6804;48.774;9.174;2023-02-28T14:57:54;7.13;;;6.43;;
13463;SDS011;6804;48.774;9.174;2023-02-28T15:00:25;7.90;;;7.10;;
13463;SDS011;6804;48.774;9.174;2023-02-28T15:02:59;8.83;;;7.17;;
13463;SDS011;6804;48.774;9.174;2023-02-28T15:05:47;8.70;;;6.67;;
13463;SDS011;6804;48.774;9.174;2023-02-28T15:08:23;8.53;;;6.97;;
13463;SDS011;6804;48.774;9.174;2023-02-28T15:10:52;8.13;;;7.33;;
13463;SDS011;6804;48.774;9.174;2023-02-28T15:13:21;8.53;;;6.67;;
13463;SDS011;6804;48.774;9.174;2023-02-28T15:15:52;8.57;;;7.50;;
13463;SDS011;6804;48.774;9.174;2023-02-28T15:18:27;10.03;;;6.70;;
13463;SDS011;6804;48.774;9.174;2023-02-28T15:21:06;8.07;;;7.03;;
13463;SDS011;6804;48.774;9.174;2023-02-28T15:23:38;7.43;;;6.60;;
13463;SDS011;6804;48.774;9.174;2023-02-28T15:26:16;13.00;;;7.53;;
13463;SDS011;6804;48.774;9.174;2023-02-28T15:28:52;9.40;;;6.27;;
13463;SDS011;6804;48.774;9.174;2023-02-28T15:31:26;12.30;;;8.97;;
13463;SDS011;6804;48.774;9.174;2023-02-28T15:34:02;8.60;;;6.63;;
13463;SDS011;6804;48.774;9.174;2023-02-28T15:36:33;15.47;;;6.50;;
13463;SDS011;6804;48.774;9.174;2023-02-28T15:39:02;11.17;;;6.80;;
13463;SDS011;6804;48.774;9.174;2023-02-28T15:41:44;7.43;;;6.73;;
13463;SDS011;6804;48.774;9.174;2023-02-28T15:44:15;9.77;;;8.03;;
13463;SDS011;6804;48.774;9.174;2023-02-28T15:46:57;7.93;;;6.93;;
13463;SDS011;6804;48.774;9.174;2023-02-28T15:49:29;10.27;;;8.97;;
13463;SDS011;6804;48.774;9.174;2023-02-28T15:52:03;10.87;;;8.90;;
13463;SDS011;6804;48.774;9.174;2023-02-28T15:54:32;11.13;;;8.70;;
13463;SDS011;6804;48.774;9.174;2023-02-28T15:57:05;7.70;;;6.90;;
13463;SDS011;6804;48.774;9.174;2023-02-28T15:59:34;8.40;;;7.43;;
13463;SDS011;6804;48.774;9.174;2023-02-28T16:02:13;8.00;;;7.20;;
13463;SDS011;6804;48.774;9.174;2023-02-28T16:04:58;9.00;;;6.70;;
13463;SDS011;6804;48.774;9.174;2023-02-28T16:07:28;9.77;;;7.07;;